Time;durP1;ratioP1;P1;durP2;ratioP2;P2;SDS_P1;SDS_P2;PMS_P1;PMS_P2;Temp;Humidity;BMP_temperature;BMP_pressure;BME280_temperature;BME280_humidity;BME280_pressure;Samples;Min_cycle;Max_cycle;Signal;HPM_P1;HPM_P2
2022/03/01 00:00:01;;;;;;;7.65;6.18;;;;;;;;;;5056311;28;20226;-20
2022/03/01 00:02:28;;;;;;;7.78;5.95;;;;;;;;;;5056076;28;20226;-20
2022/03/01 00:04:55;;;;;;;8.07;6.30;;;;;;;;;;5056433;28;20281;-20
2022/03/01 00:07:22;;;;;;;7.10;5.65;;;;;;;;;;5055527;28;20214;-20
2022/03/01 00:09:49;;;;;;;7.47;5.90;;;;;;;;;;5055996;28;20229;-20
2022/03/01 00:12:16;;;;;;;9.90;6.85;;;;;;;;;;5056403;28;20233;-20
2022/03/01 00:14:43;;;;;;;7.53;5.90;;;;;;;;;;5056642;28;20233;-20
2022/03/01 00:17:10;;;;;;;7.97;6.25;;;;;;;;;;5055835;28;20983;-20
2022/03/01 00:19:37;;;;;;;6.55;5.82;;;;;;;;;;5056333;28;20285;-20
2022/03/01 00:22:04;;;;;;;7.70;6.43;;;;;;;;;;5054893;28;20234;-20
2022/03/01 00:24:32;;;;;;;7.22;5.88;;;;;;;;;;5056118;28;20792;-20
2022/03/01 00:26:59;;;;;;;7.03;6.05;;;;;;;;;;5055616;28;20226;-20
2022/03/01 00:29:26;;;;;;;7.78;6.47;;;;;;;;;;5056233;28;20234;-20
2022/03/01 00:31:53;;;;;;;9.95;6.50;;;;;;;;;;5055400;28;20236;-20
2022/03/01 00:34:20;;;;;;;7.20;6.07;;;;;;;;;;5056700;28;20230;-20
2022/03/01 00:36:47;;;;;;;8.30;5.97;;;;;;;;;;5056091;28;20224;-20
2022/03/01 00:39:14;;;;;;;6.95;5.90;;;;;;;;;;5055774;28;20629;-20
2022/03/01 00:41:41;;;;;;;7.72;6.50;;;;;;;;;;5056423;28;21119;-20
2022/03/01 00:44:08;;;;;;;9.07;6.18;;;;;;;;;;5055930;28;20705;-20
2022/03/01 00:46:35;;;;;;;8.30;6.00;;;;;;;;;;5055613;28;20255;-20
2022/03/01 00:49:02;;;;;;;7.15;6.00;;;;;;;;;;5056066;28;20234;-20
2022/03/01 00:51:29;;;;;;;6.85;6.05;;;;;;;;;;5056909;28;20226;-20
2022/03/01 00:53:56;;;;;;;7.53;6.05;;;;;;;;;;5059603;28;20230;-20
2022/03/01 00:56:23;;;;;;;8.70;6.07;;;;;;;;;;5059370;28;20206;-20
2022/03/01 00:58:50;;;;;;;6.88;5.55;;;;;;;;;;5059416;28;20226;-20
2022/03/01 01:01:17;;;;;;;8.05;6.00;;;;;;;;;;5058923;28;20237;-20
2022/03/01 01:03:45;;;;;;;6.90;5.78;;;;;;;;;;5059321;28;20234;-20
2022/03/01 01:06:12;;;;;;;8.43;6.38;;;;;;;;;;5059027;28;20226;-20
2022/03/01 01:08:38;;;;;;;6.78;5.60;;;;;;;;;;5059120;28;20241;-20
2022/03/01 01:11:05;;;;;;;6.80;6.03;;;;;;;;;;5056701;28;20230;-20
2022/03/01 01:13:32;;;;;;;7.97;6.20;;;;;;;;;;5057949;28;20692;-20
2022/03/01 01:15:59;;;;;;;7.78;6.18;;;;;;;;;;5057820;28;20296;-20
2022/03/01 01:18:26;;;;;;;8.25;6.22;;;;;;;;;;5059824;28;20233;-20
2022/03/01 01:20:53;;;;;;;6.85;5.95;;;;;;;;;;5063186;28;20234;-21
2022/03/01 01:23:20;;;;;;;6.72;5.65;;;;;;;;;;5057930;28;20233;-20
2022/03/01 01:25:47;;;;;;;7.60;5.88;;;;;;;;;;5058641;28;20257;-20
2022/03/01 01:28:14;;;;;;;8.23;6.15;;;;;;;;;;5058960;28;20242;-20
2022/03/01 01:30:41;;;;;;;8.40;6.10;;;;;;;;;;5058862;28;20709;-20
2022/03/01 01:33:08;;;;;;;8.68;6.43;;;;;;;;;;5059078;28;20353;-20
2022/03/01 01:35:35;;;;;;;8.02;6.43;;;;;;;;;;5058641;28;21057;-20
2022/03/01 01:38:02;;;;;;;6.95;5.57;;;;;;;;;;5058578;28;20731;-20
2022/03/01 01:40:29;;;;;;;8.07;6.00;;;;;;;;;;5059525;28;21041;-20
2022/03/01 01:42:56;;;;;;;7.25;6.05;;;;;;;;;;5058249;28;20234;-20
2022/03/01 01:45:23;;;;;;;7.72;6.28;;;;;;;;;;5058322;28;20229;-20
2022/03/01 01:47:51;;;;;;;9.77;6.32;;;;;;;;;;5059167;28;20233;-20
2022/03/01 01:50:20;;;;;;;7.50;6.10;;;;;;;;;;5059182;28;20230;-20
2022/03/01 01:52:47;;;;;;;9.13;6.25;;;;;;;;;;5058686;28;20226;-20
2022/03/01 01:55:14;;;;;;;8.18;6.35;;;;;;;;;;5058679;28;20236;-20
2022/03/01 01:57:41;;;;;;;8.90;6.35;;;;;;;;;;5058009;28;20222;-20
2022/03/01 02:00:07;;;;;;;8.38;6.63;;;;;;;;;;5058806;28;20229;-20
2022/03/01 02:02:34;;;;;;;8.48;6.00;;;;;;;;;;5057324;28;20226;-20
2022/03/01 02:05:02;;;;;;;6.57;5.82;;;;;;;;;;5057372;28;20321;-20
2022/03/01 02:07:29;;;;;;;6.75;5.75;;;;;;;;;;5058430;28;20224;-20
2022/03/01 02:09:56;;;;;;;7.18;5.93;;;;;;;;;;5058761;28;20233;-20
2022/03/01 02:12:25;;;;;;;7.90;6.40;;;;;;;;;;5058240;28;20237;-20
2022/03/01 02:14:52;;;;;;;7.88;6.43;;;;;;;;;;5058706;28;20213;-20
2022/03/01 02:17:19;;;;;;;7.35;5.78;;;;;;;;;;5057505;28;20222;-20
2022/03/01 02:19:46;;;;;;;7.55;5.95;;;;;;;;;;5058128;28;20952;-20
2022/03/01 02:22:13;;;;;;;7.65;5.50;;;;;;;;;;5057603;28;20245;-20
2022/03/01 02:24:40;;;;;;;8.30;6.53;;;;;;;;;;5058113;28;20697;-20
2022/03/01 02:27:07;;;;;;;9.68;5.82;;;;;;;;;;5057542;28;20240;-20
2022/03/01 02:29:34;;;;;;;7.18;5.47;;;;;;;;;;5057584;28;20242;-20
2022/03/01 02:32:01;;;;;;;8.13;6.03;;;;;;;;;;5058120;28;20234;-20
2022/03/01 02:34:28;;;;;;;8.10;6.10;;;;;;;;;;5058087;28;20300;-20
2022/03/01 02:36:55;;;;;;;8.17;5.67;;;;;;;;;;5058123;28;21001;-20
2022/03/01 02:39:22;;;;;;;9.00;6.20;;;;;;;;;;5057433;28;20234;-20
2022/03/01 02:41:49;;;;;;;8.67;6.30;;;;;;;;;;5058658;28;20330;-20
2022/03/01 02:44:16;;;;;;;7.43;6.10;;;;;;;;;;5057519;28;20222;-20
2022/03/01 02:46:44;;;;;;;7.97;6.18;;;;;;;;;;5057624;28;20233;-20
2022/03/01 02:49:11;;;;;;;6.90;5.90;;;;;;;;;;5056247;28;20238;-20
2022/03/01 02:51:38;;;;;;;6.87;6.00;;;;;;;;;;5057304;28;20261;-20
2022/03/01 02:54:05;;;;;;;7.30;5.85;;;;;;;;;;5056737;28;20234;-20
2022/03/01 02:56:32;;;;;;;7.60;5.80;;;;;;;;;;5057975;28;20229;-20
2022/03/01 02:58:59;;;;;;;6.40;5.80;;;;;;;;;;5056856;28;20226;-20
2022/03/01 03:01:26;;;;;;;6.97;5.97;;;;;;;;;;5056980;28;20222;-20
2022/03/01 03:03:54;;;;;;;7.33;5.60;;;;;;;;;;5057264;28;20258;-20
2022/03/01 03:06:20;;;;;;;7.33;5.70;;;;;;;;;;5057130;28;20739;-20
2022/03/01 03:08:47;;;;;;;7.07;5.80;;;;;;;;;;5049872;28;20994;-20
2022/03/01 03:11:14;;;;;;;8.00;5.97;;;;;;;;;;5056833;28;20238;-20
2022/03/01 03:13:42;;;;;;;7.97;5.80;;;;;;;;;;5056891;28;20579;-20
2022/03/01 03:16:10;;;;;;;6.60;5.53;;;;;;;;;;5055700;28;20234;-20
2022/03/01 03:18:38;;;;;;;8.00;6.03;;;;;;;;;;5057538;28;21524;-20
2022/03/01 03:21:04;;;;;;;7.33;6.23;;;;;;;;;;5055476;28;20242;-20
2022/03/01 03:23:31;;;;;;;7.40;6.07;;;;;;;;;;5056488;28;20324;-20
2022/03/01 03:25:58;;;;;;;7.50;6.43;;;;;;;;;;5057379;28;20222;-20
2022/03/01 03:28:25;;;;;;;7.80;5.87;;;;;;;;;;5056231;28;20237;-20
2022/03/01 03:30:52;;;;;;;8.97;6.00;;;;;;;;;;5056793;28;20249;-20
2022/03/01 03:33:20;;;;;;;8.60;5.97;;;;;;;;;;5056559;28;20254;-20
2022/03/01 03:35:48;;;;;;;6.77;5.87;;;;;;;;;;5056114;28;20232;-20
2022/03/01 03:38:15;;;;;;;7.10;5.80;;;;;;;;;;5057176;28;20241;-20
2022/03/01 03:40:42;;;;;;;6.53;5.57;;;;;;;;;;5057437;28;20218;-20
2022/03/01 03:43:09;;;;;;;8.10;5.67;;;;;;;;;;5056755;28;20206;-20
2022/03/01 03:45:36;;;;;;;8.53;6.37;;;;;;;;;;5057424;28;20238;-20
2022/03/01 03:48:03;;;;;;;7.73;5.97;;;;;;;;;;5057333;28;21037;-20
2022/03/01 03:50:30;;;;;;;7.57;6.10;;;;;;;;;;5057704;28;20238;-20
2022/03/01 03:52:57;;;;;;;8.43;6.30;;;;;;;;;;5057223;28;20222;-20
2022/03/01 03:55:24;;;;;;;7.43;5.90;;;;;;;;;;5056361;28;20238;-20
2022/03/01 03:57:51;;;;;;;6.83;5.63;;;;;;;;;;5057214;28;20222;-20
2022/03/01 04:00:18;;;;;;;7.70;5.83;;;;;;;;;;5056830;28;20234;-20
2022/03/01 04:02:51;;;;;;;7.00;5.80;;;;;;;;;;5057167;28;20245;-20
2022/03/01 04:05:18;;;;;;;6.77;5.73;;;;;;;;;;5056031;28;20221;-20
2022/03/01 04:07:45;;;;;;;7.77;6.00;;;;;;;;;;5056682;28;20230;-20
2022/03/01 04:10:12;;;;;;;7.60;6.23;;;;;;;;;;5056817;28;20246;-20
2022/03/01 04:12:39;;;;;;;8.57;6.10;;;;;;;;;;5056933;28;20217;-20
2022/03/01 04:15:06;;;;;;;7.00;5.90;;;;;;;;;;5056381;28;20234;-20
2022/03/01 04:17:33;;;;;;;7.00;5.80;;;;;;;;;;5055936;28;20229;-20
2022/03/01 04:20:02;;;;;;;6.83;5.50;;;;;;;;;;5056373;28;20237;-20
2022/03/01 04:22:30;;;;;;;7.00;5.87;;;;;;;;;;5056123;28;20253;-20
2022/03/01 04:24:57;;;;;;;7.87;6.10;;;;;;;;;;5057134;28;20225;-20
2022/03/01 04:27:24;;;;;;;7.27;5.83;;;;;;;;;;5058009;28;20218;-20
2022/03/01 04:29:51;;;;;;;7.77;5.47;;;;;;;;;;5059526;28;20248;-20
2022/03/01 04:32:18;;;;;;;7.53;5.93;;;;;;;;;;5060657;28;20214;-20
2022/03/01 04:34:45;;;;;;;7.13;5.97;;;;;;;;;;5059865;28;20992;-20
2022/03/01 04:37:12;;;;;;;7.27;5.63;;;;;;;;;;5060000;28;20226;-20
2022/03/01 04:39:39;;;;;;;8.23;6.40;;;;;;;;;;5059638;28;20956;-20
2022/03/01 04:42:07;;;;;;;7.37;5.93;;;;;;;;;;5060137;28;20333;-20
2022/03/01 04:44:34;;;;;;;7.20;5.90;;;;;;;;;;5059296;28;20233;-20
2022/03/01 04:47:01;;;;;;;7.27;6.50;;;;;;;;;;5059714;28;20230;-20
2022/03/01 04:49:28;;;;;;;7.50;5.87;;;;;;;;;;5059046;28;20236;-20
2022/03/01 04:51:55;;;;;;;8.27;5.67;;;;;;;;;;5059326;28;20222;-20
2022/03/01 04:54:22;;;;;;;7.60;6.47;;;;;;;;;;5059547;28;20241;-20
2022/03/01 04:56:49;;;;;;;7.53;6.30;;;;;;;;;;5060527;28;20262;-20
2022/03/01 04:59:16;;;;;;;7.63;6.10;;;;;;;;;;5060593;28;20360;-20
2022/03/01 05:01:43;;;;;;;6.10;5.47;;;;;;;;;;5059821;28;20243;-20
2022/03/01 05:04:10;;;;;;;6.97;6.07;;;;;;;;;;5059702;28;20300;-20
2022/03/01 05:06:38;;;;;;;7.73;6.13;;;;;;;;;;5059842;28;20723;-20
2022/03/01 05:09:05;;;;;;;7.47;6.10;;;;;;;;;;5059681;28;20249;-20
2022/03/01 05:11:32;;;;;;;8.17;6.37;;;;;;;;;;5058816;28;20237;-20
2022/03/01 05:13:59;;;;;;;7.70;6.10;;;;;;;;;;5059474;28;20222;-20
2022/03/01 05:16:26;;;;;;;7.10;5.83;;;;;;;;;;5059162;28;20234;-20
2022/03/01 05:18:53;;;;;;;8.10;6.40;;;;;;;;;;5059339;28;20214;-20
2022/03/01 05:21:20;;;;;;;6.93;5.77;;;;;;;;;;5058650;28;20246;-20
2022/03/01 05:23:47;;;;;;;6.80;5.70;;;;;;;;;;5058290;28;20232;-20
2022/03/01 05:26:14;;;;;;;8.63;6.90;;;;;;;;;;5059299;28;20226;-20
2022/03/01 05:28:41;;;;;;;7.63;6.33;;;;;;;;;;5060245;28;20256;-20
2022/03/01 05:31:08;;;;;;;7.90;6.13;;;;;;;;;;5058953;28;20226;-20
2022/03/01 05:33:36;;;;;;;8.03;6.50;;;;;;;;;;5058350;28;20237;-20
2022/03/01 05:36:03;;;;;;;7.00;5.93;;;;;;;;;;5058401;28;20222;-20
2022/03/01 05:38:30;;;;;;;10.13;6.07;;;;;;;;;;5058632;28;21134;-20
2022/03/01 05:40:57;;;;;;;8.03;6.10;;;;;;;;;;5059380;28;20213;-20
2022/03/01 05:43:24;;;;;;;7.63;6.20;;;;;;;;;;5058643;28;20236;-20
2022/03/01 05:45:51;;;;;;;8.97;6.10;;;;;;;;;;5058441;28;20226;-20
2022/03/01 05:48:18;;;;;;;8.40;6.30;;;;;;;;;;5059031;28;20502;-20
2022/03/01 05:50:46;;;;;;;7.40;6.20;;;;;;;;;;5058562;28;20234;-20
2022/03/01 05:53:13;;;;;;;9.00;6.63;;;;;;;;;;5058737;28;20731;-20
2022/03/01 05:55:40;;;;;;;9.07;7.07;;;;;;;;;;5057531;28;20940;-20
2022/03/01 05:58:07;;;;;;;8.00;6.10;;;;;;;;;;5059256;28;20624;-20
2022/03/01 06:00:34;;;;;;;9.43;7.00;;;;;;;;;;5058434;28;20227;-20
2022/03/01 06:03:01;;;;;;;7.90;6.37;;;;;;;;;;5059183;28;20222;-20
2022/03/01 06:05:28;;;;;;;9.03;6.77;;;;;;;;;;5058508;28;20230;-20
2022/03/01 06:07:58;;;;;;;9.60;6.73;;;;;;;;;;5058387;28;20214;-20
2022/03/01 06:10:25;;;;;;;8.40;6.67;;;;;;;;;;5058472;28;20277;-20
2022/03/01 06:12:52;;;;;;;8.20;6.50;;;;;;;;;;5058592;28;21026;-20
2022/03/01 06:15:19;;;;;;;9.70;7.43;;;;;;;;;;5058680;28;20226;-20
2022/03/01 06:17:46;;;;;;;8.27;6.80;;;;;;;;;;5058496;28;20214;-20
2022/03/01 06:20:13;;;;;;;8.33;6.63;;;;;;;;;;5058384;28;20222;-20
2022/03/01 06:22:40;;;;;;;8.87;7.17;;;;;;;;;;5057595;28;20249;-20
2022/03/01 06:25:08;;;;;;;10.10;7.20;;;;;;;;;;5058793;28;20232;-20
2022/03/01 06:27:35;;;;;;;7.80;6.53;;;;;;;;;;5058872;28;20218;-20
2022/03/01 06:30:01;;;;;;;8.70;6.37;;;;;;;;;;5058409;28;20238;-20
2022/03/01 06:32:28;;;;;;;8.47;6.87;;;;;;;;;;5058892;28;20238;-20
2022/03/01 06:34:55;;;;;;;11.30;7.07;;;;;;;;;;5057764;28;20713;-20
2022/03/01 06:37:35;;;;;;;8.40;7.33;;;;;;;;;;5058302;28;20256;-20
2022/03/01 06:40:02;;;;;;;9.47;7.00;;;;;;;;;;5058200;28;20686;-20
2022/03/01 06:42:29;;;;;;;9.27;7.57;;;;;;;;;;5057745;28;21147;-20
2022/03/01 06:44:56;;;;;;;10.00;7.33;;;;;;;;;;5058163;28;20222;-20
2022/03/01 06:47:23;;;;;;;11.93;6.97;;;;;;;;;;5057810;28;20269;-20
2022/03/01 06:49:51;;;;;;;9.50;7.10;;;;;;;;;;5057061;28;20257;-20
2022/03/01 06:52:18;;;;;;;9.43;7.13;;;;;;;;;;5057810;28;20226;-20
2022/03/01 06:54:45;;;;;;;8.80;6.80;;;;;;;;;;5058269;28;20229;-20
2022/03/01 06:57:15;;;;;;;12.43;6.87;;;;;;;;;;5057798;28;20261;-20
2022/03/01 06:59:42;;;;;;;10.37;7.30;;;;;;;;;;5057698;28;20226;-20
2022/03/01 07:02:09;;;;;;;8.70;6.97;;;;;;;;;;5057106;28;20234;-20
2022/03/01 07:04:36;;;;;;;7.43;6.50;;;;;;;;;;5057490;28;20218;-20
2022/03/01 07:07:05;;;;;;;10.17;7.00;;;;;;;;;;5057554;28;21161;-20
2022/03/01 07:09:32;;;;;;;7.77;6.43;;;;;;;;;;5057793;28;20705;-20
2022/03/01 07:11:59;;;;;;;8.87;7.10;;;;;;;;;;5057594;28;20238;-20
2022/03/01 07:14:26;;;;;;;8.97;7.27;;;;;;;;;;5056704;28;20600;-20
2022/03/01 07:16:53;;;;;;;12.83;7.33;;;;;;;;;;5057567;28;20245;-20
2022/03/01 07:19:20;;;;;;;9.23;6.70;;;;;;;;;;5057871;28;20264;-20
2022/03/01 07:21:47;;;;;;;9.63;7.03;;;;;;;;;;5056820;28;20242;-20
2022/03/01 07:24:14;;;;;;;9.43;7.17;;;;;;;;;;5056528;28;20237;-20
2022/03/01 07:26:42;;;;;;;8.43;7.07;;;;;;;;;;5057075;28;20618;-20
2022/03/01 07:29:09;;;;;;;9.83;7.40;;;;;;;;;;5057473;28;20210;-20
2022/03/01 07:31:36;;;;;;;8.97;6.97;;;;;;;;;;5057748;28;20871;-20
2022/03/01 07:34:03;;;;;;;9.63;6.80;;;;;;;;;;5056962;28;20237;-20
2022/03/01 07:36:30;;;;;;;8.40;6.90;;;;;;;;;;5056083;28;20784;-20
2022/03/01 07:38:57;;;;;;;8.13;6.60;;;;;;;;;;5056934;28;20210;-20
2022/03/01 07:41:24;;;;;;;9.30;6.83;;;;;;;;;;5057085;28;20233;-20
2022/03/01 07:43:51;;;;;;;9.00;7.20;;;;;;;;;;5057150;28;20226;-20
2022/03/01 07:46:19;;;;;;;8.83;6.63;;;;;;;;;;5056472;28;20324;-20
2022/03/01 07:48:47;;;;;;;9.83;7.37;;;;;;;;;;5056910;28;20756;-20
2022/03/01 07:51:15;;;;;;;8.33;6.73;;;;;;;;;;5056855;28;20244;-20
2022/03/01 07:53:42;;;;;;;8.77;7.20;;;;;;;;;;5057423;28;20940;-20
2022/03/01 07:56:08;;;;;;;10.07;7.13;;;;;;;;;;5056480;28;20227;-20
2022/03/01 07:58:35;;;;;;;9.73;6.60;;;;;;;;;;5056741;28;20230;-20
2022/03/01 08:01:02;;;;;;;8.67;6.87;;;;;;;;;;5056643;28;20288;-20
2022/03/01 08:03:30;;;;;;;7.90;6.30;;;;;;;;;;5056765;28;20317;-20
2022/03/01 08:05:57;;;;;;;7.53;6.27;;;;;;;;;;5057286;28;20229;-20
2022/03/01 08:08:24;;;;;;;9.33;6.93;;;;;;;;;;5056933;28;20214;-20
2022/03/01 08:10:52;;;;;;;9.37;6.60;;;;;;;;;;5056366;28;20238;-20
2022/03/01 08:13:39;;;;;;;8.77;7.17;;;;;;;;;;5056118;28;21071;-20
2022/03/01 08:16:06;;;;;;;10.17;7.00;;;;;;;;;;5057165;28;20222;-20
2022/03/01 08:18:33;;;;;;;8.17;6.63;;;;;;;;;;5055814;28;20261;-20
2022/03/01 08:21:00;;;;;;;8.23;6.60;;;;;;;;;;5056807;28;20242;-20
2022/03/01 08:23:27;;;;;;;10.93;6.83;;;;;;;;;;5056718;28;20924;-20
2022/03/01 08:25:56;;;;;;;9.43;7.20;;;;;;;;;;5056870;28;20234;-20
2022/03/01 08:28:23;;;;;;;9.77;7.20;;;;;;;;;;5056837;28;20222;-20
2022/03/01 08:30:51;;;;;;;9.47;6.90;;;;;;;;;;5063233;28;20229;-20
2022/03/01 08:33:20;;;;;;;8.23;6.60;;;;;;;;;;5056925;28;20229;-20
2022/03/01 08:35:47;;;;;;;8.83;6.87;;;;;;;;;;5056416;28;21059;-20
2022/03/01 08:38:14;;;;;;;7.83;6.70;;;;;;;;;;5057201;28;20227;-20
2022/03/01 08:40:41;;;;;;;9.13;6.87;;;;;;;;;;5056358;28;20234;-20
2022/03/01 08:43:08;;;;;;;9.10;6.80;;;;;;;;;;5056604;28;20228;-20
2022/03/01 08:45:35;;;;;;;7.37;6.30;;;;;;;;;;5056767;28;20230;-20
2022/03/01 08:48:03;;;;;;;9.30;6.90;;;;;;;;;;5056068;28;20341;-20
2022/03/01 08:50:30;;;;;;;8.17;6.57;;;;;;;;;;5056409;28;20288;-20
2022/03/01 08:53:15;;;;;;;11.00;6.53;;;;;;;;;;5056264;28;20229;-20
2022/03/01 08:55:42;;;;;;;10.87;7.47;;;;;;;;;;5056486;28;21110;-20
2022/03/01 08:58:09;;;;;;;8.63;6.80;;;;;;;;;;5056293;28;20274;-20
2022/03/01 09:00:36;;;;;;;8.97;6.67;;;;;;;;;;5056316;28;20230;-20
2022/03/01 09:03:03;;;;;;;7.50;6.50;;;;;;;;;;5055254;28;20230;-20
2022/03/01 09:05:32;;;;;;;9.20;6.63;;;;;;;;;;5056606;28;20226;-20
2022/03/01 09:07:59;;;;;;;8.60;7.07;;;;;;;;;;5056213;28;20309;-20
2022/03/01 09:10:26;;;;;;;9.37;7.10;;;;;;;;;;5056563;28;20241;-20
2022/03/01 09:12:53;;;;;;;8.37;6.53;;;;;;;;;;5057583;28;21033;-20
2022/03/01 09:15:20;;;;;;;8.30;6.80;;;;;;;;;;5058941;28;20218;-20
2022/03/01 09:17:48;;;;;;;10.50;7.60;;;;;;;;;;5059558;28;20226;-20
2022/03/01 09:20:14;;;;;;;9.63;6.80;;;;;;;;;;5060160;28;20237;-20
2022/03/01 09:22:41;;;;;;;10.13;7.37;;;;;;;;;;5058747;28;20246;-20
2022/03/01 09:25:08;;;;;;;11.53;7.00;;;;;;;;;;5058475;28;20245;-20
2022/03/01 09:27:35;;;;;;;10.97;7.83;;;;;;;;;;5059372;28;20210;-20
2022/03/01 09:30:02;;;;;;;8.87;7.07;;;;;;;;;;5058816;28;20999;-20
2022/03/01 09:32:29;;;;;;;9.50;7.00;;;;;;;;;;5039793;28;20237;-20
2022/03/01 09:34:57;;;;;;;9.13;6.97;;;;;;;;;;5039513;28;20237;-20
2022/03/01 09:37:24;;;;;;;8.77;7.13;;;;;;;;;;5058179;28;20226;-20
2022/03/01 09:39:51;;;;;;;8.47;6.43;;;;;;;;;;5059121;28;20725;-20
2022/03/01 09:42:18;;;;;;;9.17;7.60;;;;;;;;;;5058898;28;20429;-20
2022/03/01 09:44:45;;;;;;;10.60;7.43;;;;;;;;;;5058977;28;20221;-20
2022/03/01 09:47:12;;;;;;;9.27;7.00;;;;;;;;;;5057802;28;20230;-20
2022/03/01 09:49:39;;;;;;;10.03;7.30;;;;;;;;;;5058721;28;20252;-20
2022/03/01 09:52:11;;;;;;;9.50;7.00;;;;;;;;;;5058729;28;20229;-20
2022/03/01 09:54:38;;;;;;;8.80;6.70;;;;;;;;;;5058838;28;20232;-20
2022/03/01 09:57:05;;;;;;;7.83;6.87;;;;;;;;;;5059032;28;20958;-20
2022/03/01 09:59:35;;;;;;;9.43;7.10;;;;;;;;;;5039226;28;20227;-20
2022/03/01 10:02:02;;;;;;;9.33;7.13;;;;;;;;;;5055276;28;20236;-20
2022/03/01 10:04:30;;;;;;;9.23;6.73;;;;;;;;;;5058610;28;20241;-20
2022/03/01 10:06:56;;;;;;;8.90;6.83;;;;;;;;;;5059372;28;20715;-20
2022/03/01 10:09:24;;;;;;;8.13;6.80;;;;;;;;;;5057804;28;21085;-20
2022/03/01 10:11:51;;;;;;;10.50;7.53;;;;;;;;;;5058489;28;20292;-20
2022/03/01 10:14:18;;;;;;;9.27;7.13;;;;;;;;;;5058764;28;20233;-20
2022/03/01 10:16:47;;;;;;;9.23;6.73;;;;;;;;;;5058377;28;20230;-20
2022/03/01 10:19:14;;;;;;;9.57;7.10;;;;;;;;;;5057343;28;21045;-20
2022/03/01 10:21:41;;;;;;;9.70;6.60;;;;;;;;;;5058340;28;20245;-20
2022/03/01 10:24:08;;;;;;;9.73;6.80;;;;;;;;;;5057436;28;20701;-20
2022/03/01 10:26:37;;;;;;;8.40;6.60;;;;;;;;;;5058684;28;20719;-20
2022/03/01 10:29:24;;;;;;;9.00;6.77;;;;;;;;;;5058731;28;20229;-20
2022/03/01 10:31:52;;;;;;;10.47;7.40;;;;;;;;;;5057521;28;20237;-20
2022/03/01 10:34:19;;;;;;;8.93;6.80;;;;;;;;;;5057793;28;20288;-20
2022/03/01 10:36:47;;;;;;;9.17;7.33;;;;;;;;;;5057924;28;20210;-20
2022/03/01 10:39:14;;;;;;;8.67;6.60;;;;;;;;;;5057211;28;20226;-20
2022/03/01 10:41:43;;;;;;;8.93;7.23;;;;;;;;;;5057342;28;20226;-20
2022/03/01 10:44:10;;;;;;;9.63;7.27;;;;;;;;;;5057737;28;21088;-20
2022/03/01 10:46:43;;;;;;;10.00;7.37;;;;;;;;;;5057874;28;20230;-20
2022/03/01 10:49:11;;;;;;;8.30;7.10;;;;;;;;;;5057734;28;20248;-20
2022/03/01 10:51:37;;;;;;;8.67;6.70;;;;;;;;;;5057554;28;20249;-20
2022/03/01 10:54:04;;;;;;;10.03;7.17;;;;;;;;;;5057761;28;20238;-20
2022/03/01 10:56:31;;;;;;;8.97;7.03;;;;;;;;;;5057649;28;20221;-20
2022/03/01 10:58:58;;;;;;;9.07;7.33;;;;;;;;;;5057236;28;20232;-20
2022/03/01 11:01:27;;;;;;;8.93;7.23;;;;;;;;;;5057707;28;20232;-20
2022/03/01 11:03:55;;;;;;;8.97;7.20;;;;;;;;;;5063639;28;20704;-20
2022/03/01 11:06:22;;;;;;;9.53;7.20;;;;;;;;;;5077847;28;20251;-20
2022/03/01 11:08:49;;;;;;;11.27;7.47;;;;;;;;;;5077553;28;20268;-20
2022/03/01 11:11:16;;;;;;;7.93;6.77;;;;;;;;;;5077460;28;20233;-20
2022/03/01 11:13:43;;;;;;;11.23;7.77;;;;;;;;;;5077932;28;21065;-20
2022/03/01 11:16:13;;;;;;;9.97;6.67;;;;;;;;;;5059351;28;20226;-20
2022/03/01 11:18:40;;;;;;;9.57;7.00;;;;;;;;;;5057613;28;20237;-20
2022/03/01 11:21:07;;;;;;;9.07;6.83;;;;;;;;;;5056453;28;20230;-20
2022/03/01 11:23:34;;;;;;;11.37;7.30;;;;;;;;;;5057490;28;20230;-20
2022/03/01 11:26:01;;;;;;;9.87;7.40;;;;;;;;;;5057345;28;20237;-20
2022/03/01 11:28:28;;;;;;;9.80;7.53;;;;;;;;;;5057507;28;20226;-20
2022/03/01 11:30:55;;;;;;;9.90;7.27;;;;;;;;;;5056362;28;20234;-20
2022/03/01 11:33:22;;;;;;;9.60;7.23;;;;;;;;;;5056977;28;20218;-20
2022/03/01 11:35:49;;;;;;;9.40;7.13;;;;;;;;;;5056897;28;20212;-20
2022/03/01 11:38:18;;;;;;;9.53;7.37;;;;;;;;;;5056966;28;20292;-20
2022/03/01 11:40:47;;;;;;;8.93;6.90;;;;;;;;;;5057420;28;20984;-20
2022/03/01 11:43:14;;;;;;;9.60;7.00;;;;;;;;;;5057079;28;21063;-20
2022/03/01 11:45:41;;;;;;;10.87;7.67;;;;;;;;;;5057105;28;20233;-20
2022/03/01 11:48:08;;;;;;;10.37;7.63;;;;;;;;;;5056530;28;20230;-20
2022/03/01 11:50:36;;;;;;;13.37;7.80;;;;;;;;;;5056145;28;20293;-20
2022/03/01 11:53:03;;;;;;;9.33;6.97;;;;;;;;;;5056524;28;20229;-20
2022/03/01 11:55:30;;;;;;;9.27;6.90;;;;;;;;;;5056867;28;20219;-20
2022/03/01 11:57:57;;;;;;;11.43;8.10;;;;;;;;;;5056537;28;20228;-20
2022/03/01 12:00:26;;;;;;;9.87;7.40;;;;;;;;;;5056325;28;20233;-20
2022/03/01 12:02:53;;;;;;;8.60;7.00;;;;;;;;;;5057209;28;20304;-20
2022/03/01 12:05:20;;;;;;;10.53;7.20;;;;;;;;;;5057075;28;20222;-20
2022/03/01 12:07:47;;;;;;;10.23;7.40;;;;;;;;;;5057019;28;20234;-20
2022/03/01 12:10:34;;;;;;;10.30;7.90;;;;;;;;;;5056123;28;20229;-20
2022/03/01 12:13:01;;;;;;;10.13;7.17;;;;;;;;;;5056933;28;20284;-20
2022/03/01 12:15:28;;;;;;;10.43;7.83;;;;;;;;;;5056805;28;20218;-20
2022/03/01 12:17:55;;;;;;;8.73;7.27;;;;;;;;;;5056233;28;20226;-20
2022/03/01 12:20:22;;;;;;;11.40;7.17;;;;;;;;;;5056071;28;20225;-20
2022/03/01 12:22:49;;;;;;;9.13;7.20;;;;;;;;;;5055779;28;20245;-20
2022/03/01 12:25:16;;;;;;;8.37;7.00;;;;;;;;;;5056930;28;20214;-20
2022/03/01 12:27:43;;;;;;;10.43;6.90;;;;;;;;;;5056539;28;20251;-20
2022/03/01 12:30:10;;;;;;;9.30;7.07;;;;;;;;;;5056495;28;20230;-20
2022/03/01 12:32:39;;;;;;;11.20;7.73;;;;;;;;;;5056488;28;20338;-20
2022/03/01 12:35:06;;;;;;;9.37;7.43;;;;;;;;;;5056282;28;20230;-20
2022/03/01 12:37:33;;;;;;;9.57;7.37;;;;;;;;;;5056651;28;20275;-20
2022/03/01 12:40:00;;;;;;;11.63;7.50;;;;;;;;;;5056483;28;20232;-20
2022/03/01 12:42:27;;;;;;;9.60;7.47;;;;;;;;;;5055807;28;20214;-20
2022/03/01 12:44:55;;;;;;;8.93;6.77;;;;;;;;;;5056216;28;20217;-20
2022/03/01 12:47:22;;;;;;;10.40;7.33;;;;;;;;;;5056940;28;20239;-20
2022/03/01 12:49:48;;;;;;;8.47;6.93;;;;;;;;;;5059709;28;20222;-20
2022/03/01 12:52:15;;;;;;;9.47;6.80;;;;;;;;;;5059332;28;20238;-20
2022/03/01 12:54:44;;;;;;;8.97;7.03;;;;;;;;;;5059168;28;20226;-20
2022/03/01 12:57:11;;;;;;;9.47;6.83;;;;;;;;;;5058755;28;20252;-20
2022/03/01 12:59:39;;;;;;;10.07;7.03;;;;;;;;;;5059535;28;20237;-20
2022/03/01 13:02:07;;;;;;;9.50;6.97;;;;;;;;;;5059436;28;20215;-20
2022/03/01 13:04:35;;;;;;;9.53;6.97;;;;;;;;;;5058833;28;20230;-20
2022/03/01 13:07:02;;;;;;;10.20;7.63;;;;;;;;;;5059116;28;20226;-20
2022/03/01 13:09:29;;;;;;;8.80;6.97;;;;;;;;;;5059053;28;21043;-20
2022/03/01 13:11:59;;;;;;;10.17;7.13;;;;;;;;;;5059482;28;20295;-20
2022/03/01 13:14:26;;;;;;;9.60;7.10;;;;;;;;;;5060111;28;20309;-20
2022/03/01 13:16:53;;;;;;;11.60;7.10;;;;;;;;;;5044157;28;20234;-20
2022/03/01 13:19:21;;;;;;;10.00;7.20;;;;;;;;;;5038920;28;20342;-20
2022/03/01 13:21:48;;;;;;;10.13;7.00;;;;;;;;;;5038405;28;20335;-20
2022/03/01 13:24:14;;;;;;;12.47;8.20;;;;;;;;;;5038885;28;20229;-20
2022/03/01 13:26:41;;;;;;;9.27;6.77;;;;;;;;;;5043863;28;20241;-20
2022/03/01 13:29:08;;;;;;;9.53;7.47;;;;;;;;;;5059442;28;20226;-20
2022/03/01 13:31:36;;;;;;;9.47;6.93;;;;;;;;;;5058373;28;20230;-20
2022/03/01 13:34:03;;;;;;;9.27;7.17;;;;;;;;;;5058378;28;20268;-20
2022/03/01 13:36:30;;;;;;;8.87;7.07;;;;;;;;;;5058622;28;20980;-20
2022/03/01 13:38:57;;;;;;;9.33;7.60;;;;;;;;;;5058629;28;20311;-20
2022/03/01 13:41:24;;;;;;;9.97;7.40;;;;;;;;;;5058472;28;20230;-20
2022/03/01 13:43:51;;;;;;;10.93;7.47;;;;;;;;;;5058341;28;20233;-20
2022/03/01 13:46:18;;;;;;;9.50;7.30;;;;;;;;;;5058612;28;20253;-20
2022/03/01 13:48:45;;;;;;;11.77;7.73;;;;;;;;;;5057989;28;20222;-20
2022/03/01 13:51:12;;;;;;;9.40;7.37;;;;;;;;;;5058325;28;20248;-20
2022/03/01 13:53:39;;;;;;;9.90;7.63;;;;;;;;;;5058695;28;20225;-20
2022/03/01 13:56:06;;;;;;;9.47;7.53;;;;;;;;;;5058184;28;20222;-20
2022/03/01 13:58:33;;;;;;;9.83;7.27;;;;;;;;;;5057940;28;20317;-20
2022/03/01 14:01:01;;;;;;;10.53;7.90;;;;;;;;;;5058874;28;20242;-20
2022/03/01 14:03:29;;;;;;;9.93;7.40;;;;;;;;;;5059128;28;20207;-20
2022/03/01 14:05:57;;;;;;;8.07;6.87;;;;;;;;;;5058286;28;20229;-20
2022/03/01 14:08:24;;;;;;;10.17;7.50;;;;;;;;;;5058230;28;20942;-20
2022/03/01 14:10:51;;;;;;;10.50;7.20;;;;;;;;;;5058192;28;20329;-20
2022/03/01 14:13:18;;;;;;;10.20;7.37;;;;;;;;;;5058349;28;20222;-20
2022/03/01 14:15:46;;;;;;;10.50;7.47;;;;;;;;;;5058596;28;21063;-20
2022/03/01 14:18:13;;;;;;;9.83;7.90;;;;;;;;;;5058427;28;20225;-20
2022/03/01 14:20:40;;;;;;;10.37;7.47;;;;;;;;;;5057845;28;20320;-21
2022/03/01 14:23:07;;;;;;;11.07;7.27;;;;;;;;;;5057441;28;20234;-20
2022/03/01 14:25:34;;;;;;;9.63;7.57;;;;;;;;;;5057799;28;20226;-20
2022/03/01 14:28:02;;;;;;;9.40;7.20;;;;;;;;;;5057689;28;20218;-20
2022/03/01 14:30:29;;;;;;;9.77;7.37;;;;;;;;;;5058448;28;20224;-20
2022/03/01 14:32:56;;;;;;;9.03;7.40;;;;;;;;;;5057051;28;20222;-20
2022/03/01 14:35:23;;;;;;;10.10;7.40;;;;;;;;;;5057998;28;20228;-20
2022/03/01 14:37:50;;;;;;;10.47;7.13;;;;;;;;;;5057928;28;21021;-20
2022/03/01 14:40:17;;;;;;;9.07;7.27;;;;;;;;;;5057694;28;20226;-20